Time;durP1;ratioP1;P1;durP2;ratioP2;P2;SDS_P1;SDS_P2;PMS_P1;PMS_P2;Temp;Humidity;BMP_temperature;BMP_pressure;BME280_temperature;BME280_humidity;BME280_pressure;Samples;Min_cycle;Max_cycle;Signal;HPM_P1;HPM_P2
2022/10/22 00:01:48;;;;;;;0.40;0.40;;;12.50;99.90;;;;;;5095219;28;20043;-82
2022/10/22 00:04:14;;;;;;;0.65;0.65;;;12.40;99.90;;;;;;5065943;28;20055;-82
2022/10/22 00:06:41;;;;;;;0.40;0.40;;;12.50;99.90;;;;;;5065617;28;20052;-81
2022/10/22 00:09:07;;;;;;;0.20;0.20;;;12.40;99.90;;;;;;5062396;28;20446;-82
2022/10/22 00:11:33;;;;;;;0.40;0.40;;;12.40;99.90;;;;;;5068192;28;20083;-82
2022/10/22 00:13:58;;;;;;;0.43;0.43;;;12.40;99.90;;;;;;5084946;28;21475;-82
2022/10/22 00:16:24;;;;;;;0.40;0.40;;;12.30;99.90;;;;;;5062863;28;20501;-82
2022/10/22 00:18:50;;;;;;;0.32;0.32;;;12.30;99.90;;;;;;5082564;28;20044;-82
2022/10/22 00:21:16;;;;;;;0.47;0.47;;;12.30;99.90;;;;;;5070482;28;20055;-82
2022/10/22 00:23:42;;;;;;;0.25;0.25;;;12.40;99.90;;;;;;5076475;28;20047;-82
2022/10/22 00:26:09;;;;;;;0.40;0.40;;;12.30;99.90;;;;;;5093895;28;20443;-81
2022/10/22 00:28:35;;;;;;;0.70;0.70;;;12.20;99.90;;;;;;5092576;28;20386;-81
2022/10/22 00:31:01;;;;;;;0.40;0.40;;;12.20;99.90;;;;;;5090399;28;20048;-81
2022/10/22 00:33:28;;;;;;;0.45;0.45;;;12.20;99.90;;;;;;5105401;28;20494;-82
2022/10/22 00:35:54;;;;;;;0.30;0.30;;;12.20;99.90;;;;;;5077742;28;20074;-82
2022/10/22 00:38:20;;;;;;;0.43;0.43;;;12.10;99.90;;;;;;5094076;28;20097;-82
2022/10/22 00:40:46;;;;;;;2.05;0.93;;;12.10;99.90;;;;;;5090509;28;20456;-82
2022/10/22 00:43:14;;;;;;;0.70;0.70;;;12.10;99.90;;;;;;5060321;28;20142;-83
2022/10/22 00:45:40;;;;;;;0.90;0.73;;;12.10;99.90;;;;;;5091319;28;20047;-81
2022/10/22 00:48:28;;;;;;;0.47;0.47;;;12.10;99.90;;;;;;5093770;28;20040;-82
2022/10/22 00:51:02;;;;;;;0.22;0.22;;;12.10;99.90;;;;;;5071567;28;20510;-82
2022/10/22 00:53:38;;;;;;;0.38;0.38;;;12.10;99.90;;;;;;5103785;28;20075;-82
2022/10/22 00:56:05;;;;;;;0.40;0.40;;;12.00;99.90;;;;;;5089547;28;20036;-82
2022/10/22 00:58:36;;;;;;;0.30;0.30;;;12.00;99.90;;;;;;5091798;28;20036;-82
2022/10/22 01:01:02;;;;;;;0.40;0.40;;;12.00;99.90;;;;;;5092094;28;20431;-82
2022/10/22 01:03:28;;;;;;;0.80;0.55;;;11.90;99.90;;;;;;5075599;28;20036;-82
2022/10/22 01:06:01;;;;;;;0.30;0.30;;;12.00;99.90;;;;;;5049776;28;20493;-82
2022/10/22 01:08:49;;;;;;;0.40;0.40;;;12.00;99.90;;;;;;5084777;28;20032;-81
2022/10/22 01:11:23;;;;;;;0.40;0.40;;;12.00;99.90;;;;;;5088093;28;20567;-81
2022/10/22 01:14:11;;;;;;;0.40;0.40;;;12.00;99.90;;;;;;5088104;28;20497;-82
2022/10/22 01:16:49;;;;;;;0.40;0.40;;;12.00;99.90;;;;;;5074530;28;20496;-81
2022/10/22 01:19:43;;;;;;;0.35;0.35;;;12.10;99.90;;;;;;5093342;28;20116;-81
2022/10/22 01:22:34;;;;;;;0.30;0.30;;;12.10;99.90;;;;;;5090171;28;20481;-80
2022/10/22 01:25:18;;;;;;;0.30;0.30;;;12.10;99.90;;;;;;5086463;28;20044;-81
2022/10/22 01:27:43;;;;;;;0.30;0.30;;;12.10;99.90;;;;;;5083474;28;20608;-81
2022/10/22 01:30:11;;;;;;;0.40;0.40;;;12.20;99.90;;;;;;5074586;28;20115;-81
2022/10/22 01:32:43;;;;;;;0.30;0.30;;;12.20;99.90;;;;;;5092054;28;20044;-82
2022/10/22 01:35:13;;;;;;;0.50;0.50;;;12.20;99.90;;;;;;5087890;28;20036;-82
2022/10/22 01:37:47;;;;;;;0.28;0.28;;;12.10;99.90;;;;;;5079921;28;20083;-81
2022/10/22 01:40:15;;;;;;;0.40;0.40;;;12.20;99.90;;;;;;5090802;28;20044;-82
2022/10/22 01:42:41;;;;;;;0.35;0.35;;;12.20;99.90;;;;;;5090458;28;20063;-81
2022/10/22 01:45:11;;;;;;;2.17;0.47;;;12.20;99.90;;;;;;5085356;28;20044;-82
2022/10/22 01:47:55;;;;;;;0.30;0.30;;;12.20;99.90;;;;;;5083101;28;20551;-82
2022/10/22 01:50:52;;;;;;;0.20;0.20;;;12.30;99.90;;;;;;5092388;28;20090;-81
2022/10/22 01:53:39;;;;;;;0.50;0.50;;;12.30;99.90;;;;;;5092472;28;20047;-81
2022/10/22 01:56:07;;;;;;;;;;;12.30;99.90;;;;;;5084797;28;20085;-81
2022/10/22 01:58:42;;;;;;;0.20;0.20;;;12.30;99.90;;;;;;5080258;28;19924;-79
2022/10/22 02:01:24;;;;;;;0.40;0.40;;;12.20;99.90;;;;;;5085549;28;20047;-82
2022/10/22 02:04:15;;;;;;;0.30;0.30;;;12.20;99.90;;;;;;5082776;28;20367;-80
2022/10/22 02:06:43;;;;;;;0.43;0.43;;;12.20;99.90;;;;;;5065362;28;20040;-80
2022/10/22 02:09:11;;;;;;;0.35;0.35;;;12.20;99.90;;;;;;5087411;28;20048;-80
2022/10/22 02:11:37;;;;;;;0.57;0.57;;;12.10;99.90;;;;;;5090511;28;20036;-81
2022/10/22 02:14:04;;;;;;;0.30;0.30;;;12.20;99.90;;;;;;5083959;28;20094;-81
2022/10/22 02:16:34;;;;;;;0.30;0.30;;;12.20;99.90;;;;;;5067718;28;20040;-81
2022/10/22 02:19:04;;;;;;;0.57;0.57;;;12.20;99.90;;;;;;5094121;28;20075;-81
2022/10/22 02:21:30;;;;;;;0.40;0.40;;;12.20;99.90;;;;;;5079666;28;20048;-81
2022/10/22 02:23:56;;;;;;;0.40;0.40;;;12.20;99.90;;;;;;5082347;28;20080;-81
2022/10/22 02:26:32;;;;;;;0.38;0.38;;;12.20;99.90;;;;;;5089948;28;20086;-81
2022/10/22 02:29:14;;;;;;;0.40;0.40;;;12.20;99.90;;;;;;5074563;28;20036;-81
2022/10/22 02:31:43;;;;;;;0.30;0.30;;;12.10;99.90;;;;;;5071309;28;20032;-81
2022/10/22 02:34:13;;;;;;;6.60;3.00;;;12.10;99.90;;;;;;5085396;28;20036;-81
2022/10/22 02:36:41;;;;;;;0.30;0.30;;;12.20;99.90;;;;;;5077483;28;20051;-81
2022/10/22 02:39:09;;;;;;;0.30;0.30;;;12.20;99.90;;;;;;5070509;28;20028;-81
2022/10/22 02:41:36;;;;;;;0.73;0.73;;;12.30;99.90;;;;;;5089288;28;20043;-81
2022/10/22 02:44:07;;;;;;;0.30;0.30;;;12.30;99.90;;;;;;5072905;28;20044;-81
2022/10/22 02:46:33;;;;;;;0.30;0.30;;;12.30;99.90;;;;;;5090826;28;20051;-81
2022/10/22 02:48:59;;;;;;;0.47;0.47;;;12.30;99.90;;;;;;5089120;28;20044;-81
2022/10/22 02:51:26;;;;;;;0.20;0.20;;;12.30;99.90;;;;;;5057688;28;20066;-80
2022/10/22 02:53:52;;;;;;;0.35;0.35;;;12.30;99.90;;;;;;5090176;28;20035;-81
2022/10/22 02:56:17;;;;;;;0.30;0.30;;;12.30;99.90;;;;;;5080636;28;20043;-81
2022/10/22 02:58:43;;;;;;;0.40;0.40;;;12.30;99.90;;;;;;5087093;28;20123;-81
2022/10/22 03:01:09;;;;;;;0.40;0.40;;;12.30;99.90;;;;;;5088271;28;20070;-80
2022/10/22 03:03:35;;;;;;;0.40;0.40;;;12.20;99.90;;;;;;5089352;28;20071;-81
2022/10/22 03:06:00;;;;;;;0.30;0.30;;;12.20;99.90;;;;;;5090627;28;20082;-81
2022/10/22 03:08:26;;;;;;;0.30;0.30;;;12.30;99.90;;;;;;5088365;28;20113;-81
2022/10/22 03:10:52;;;;;;;0.30;0.30;;;12.30;99.90;;;;;;5067290;28;20035;-82
2022/10/22 03:13:18;;;;;;;0.20;0.20;;;12.30;99.90;;;;;;5070827;28;20036;-82
2022/10/22 03:15:43;;;;;;;0.50;0.50;;;12.30;99.90;;;;;;5085829;28;20076;-82
2022/10/22 03:18:09;;;;;;;0.20;0.20;;;12.40;99.90;;;;;;5073367;28;20039;-81
2022/10/22 03:20:35;;;;;;;0.40;0.40;;;12.30;99.90;;;;;;5088363;28;20039;-80
2022/10/22 03:23:01;;;;;;;0.30;0.30;;;12.30;99.90;;;;;;5086665;28;20508;-81
2022/10/22 03:25:29;;;;;;;0.50;0.50;;;12.30;99.90;;;;;;5083797;28;20044;-81
2022/10/22 03:28:01;;;;;;;0.47;0.47;;;12.20;99.90;;;;;;5088481;28;20044;-81
2022/10/22 03:30:27;;;;;;;0.25;0.25;;;12.10;99.90;;;;;;5087027;28;21682;-80
2022/10/22 03:32:52;;;;;;;0.32;0.32;;;12.20;99.90;;;;;;5082950;28;20044;-81
2022/10/22 03:35:18;;;;;;;0.73;0.73;;;12.10;99.90;;;;;;5065225;28;20044;-81
2022/10/22 03:37:44;;;;;;;0.70;0.60;;;12.10;99.90;;;;;;5056230;28;20040;-81
2022/10/22 03:40:11;;;;;;;0.35;0.35;;;12.10;99.90;;;;;;5082812;28;20494;-80
2022/10/22 03:42:37;;;;;;;0.30;0.30;;;12.10;99.90;;;;;;5063770;28;20138;-80
2022/10/22 03:45:03;;;;;;;0.30;0.30;;;12.10;99.90;;;;;;5100199;28;20126;-81
2022/10/22 03:47:29;;;;;;;0.70;0.70;;;12.00;99.90;;;;;;5091857;28;20130;-81
2022/10/22 03:49:55;;;;;;;0.20;0.20;;;12.00;99.90;;;;;;5075688;28;20091;-81
2022/10/22 03:52:20;;;;;;;0.40;0.40;;;11.90;99.90;;;;;;5068731;28;20051;-81
2022/10/22 03:54:46;;;;;;;0.40;0.40;;;12.00;99.90;;;;;;5089593;28;20545;-81
2022/10/22 03:57:15;;;;;;;0.80;0.80;;;12.00;99.90;;;;;;5086433;28;20063;-81
2022/10/22 03:59:42;;;;;;;0.47;0.47;;;11.90;99.90;;;;;;5072272;28;20460;-80
2022/10/22 04:02:09;;;;;;;0.93;0.80;;;12.00;99.90;;;;;;5082225;28;20059;-81
2022/10/22 04:04:35;;;;;;;0.40;0.40;;;12.00;99.90;;;;;;5085905;28;20512;-81
2022/10/22 04:07:01;;;;;;;;;;;11.90;99.90;;;;;;5088513;28;20125;-82
2022/10/22 04:09:29;;;;;;;0.30;0.30;;;11.90;99.90;;;;;;5089779;28;19982;-81
2022/10/22 04:11:55;;;;;;;0.40;0.40;;;11.90;99.90;;;;;;5095363;28;20031;-81
2022/10/22 04:14:20;;;;;;;3.47;0.57;;;11.80;99.90;;;;;;5079906;28;20667;-81
2022/10/22 04:16:46;;;;;;;0.30;0.30;;;11.80;99.90;;;;;;5088311;28;20481;-81
2022/10/22 04:19:12;;;;;;;0.57;0.50;;;11.80;99.90;;;;;;5073200;28;20055;-81
2022/10/22 04:21:38;;;;;;;0.57;0.57;;;11.80;99.90;;;;;;5077794;28;20500;-81
2022/10/22 04:24:04;;;;;;;0.80;0.80;;;11.80;99.90;;;;;;5088379;28;20076;-80
2022/10/22 04:26:29;;;;;;;0.30;0.30;;;11.80;99.90;;;;;;5072495;28;20048;-81
2022/10/22 04:28:55;;;;;;;0.30;0.30;;;11.70;99.90;;;;;;5071220;28;20127;-81
2022/10/22 04:31:23;;;;;;;0.75;0.75;;;11.70;99.90;;;;;;5070981;28;20032;-81
2022/10/22 04:33:58;;;;;;;0.30;0.30;;;11.80;99.90;;;;;;5087744;28;20103;-81
2022/10/22 04:36:24;;;;;;;0.70;0.70;;;11.80;99.90;;;;;;5086517;28;20154;-81
2022/10/22 04:38:55;;;;;;;0.73;0.60;;;11.80;99.90;;;;;;5089258;28;20390;-81
2022/10/22 04:41:23;;;;;;;0.82;0.82;;;11.80;99.90;;;;;;5089201;28;20051;-81
2022/10/22 04:43:49;;;;;;;0.30;0.30;;;11.80;99.90;;;;;;5084915;28;20055;-82
2022/10/22 04:46:16;;;;;;;0.30;0.30;;;11.80;99.90;;;;;;5050869;28;20087;-83
2022/10/22 04:48:44;;;;;;;0.55;0.50;;;11.80;99.90;;;;;;5072856;28;20051;-82
2022/10/22 04:51:13;;;;;;;1.05;1.05;;;11.80;99.90;;;;;;5079948;28;20032;-81
2022/10/22 04:53:41;;;;;;;0.30;0.30;;;11.90;99.90;;;;;;5082194;28;20036;-81
2022/10/22 04:56:15;;;;;;;0.40;0.40;;;11.90;99.90;;;;;;5083151;28;20048;-81
2022/10/22 04:58:41;;;;;;;0.30;0.30;;;11.80;99.90;;;;;;5068418;28;20111;-82
2022/10/22 05:01:41;;;;;;;0.88;0.88;;;11.80;99.90;;;;;;5072635;28;20044;-81
2022/10/22 05:04:09;;;;;;;0.50;0.50;;;11.80;99.90;;;;;;5055019;28;20048;-82
2022/10/22 05:06:36;;;;;;;0.30;0.30;;;11.90;99.90;;;;;;5085494;28;20055;-82
2022/10/22 05:09:04;;;;;;;1.85;1.35;;;11.90;99.90;;;;;;5064976;28;20490;-82
2022/10/22 05:11:36;;;;;;;0.40;0.40;;;11.80;99.90;;;;;;5078303;28;20048;-82
2022/10/22 05:14:04;;;;;;;0.40;0.40;;;11.80;99.90;;;;;;5091878;28;20043;-83
2022/10/22 05:16:31;;;;;;;0.38;0.38;;;11.80;99.90;;;;;;5089582;28;20036;-82
2022/10/22 05:18:58;;;;;;;0.40;0.40;;;11.90;99.90;;;;;;5092976;28;20488;-81
2022/10/22 05:21:24;;;;;;;0.30;0.30;;;11.80;99.90;;;;;;5074143;28;20055;-81
2022/10/22 05:23:50;;;;;;;1.00;1.00;;;11.80;99.90;;;;;;5089794;28;20036;-82
2022/10/22 05:26:19;;;;;;;0.35;0.35;;;11.90;99.90;;;;;;5088432;28;20414;-82
2022/10/22 05:28:46;;;;;;;0.60;0.60;;;11.80;99.90;;;;;;5094543;28;20436;-82
2022/10/22 05:31:12;;;;;;;0.63;0.63;;;11.80;99.90;;;;;;5092942;28;20071;-82
2022/10/22 05:33:39;;;;;;;0.30;0.30;;;11.80;99.90;;;;;;5076213;28;20103;-82
2022/10/22 05:36:07;;;;;;;1.02;0.82;;;11.80;99.90;;;;;;5092123;28;20489;-82
2022/10/22 05:38:34;;;;;;;0.60;0.60;;;11.80;99.90;;;;;;5088356;28;20549;-82
2022/10/22 05:41:10;;;;;;;0.30;0.30;;;11.80;99.90;;;;;;5092088;28;20071;-81
2022/10/22 05:43:36;;;;;;;0.25;0.25;;;11.70;99.90;;;;;;5072506;28;20107;-82
2022/10/22 05:46:04;;;;;;;0.50;0.50;;;11.70;99.90;;;;;;5090867;28;20044;-82
2022/10/22 05:48:30;;;;;;;0.50;0.50;;;11.70;99.90;;;;;;5089725;28;20043;-82
2022/10/22 05:50:56;;;;;;;0.82;0.82;;;11.70;99.90;;;;;;5063911;28;20040;-82
2022/10/22 05:53:22;;;;;;;0.30;0.30;;;11.70;99.90;;;;;;5086770;28;20127;-81
2022/10/22 05:55:48;;;;;;;0.70;0.70;;;11.70;99.90;;;;;;5074853;28;20048;-81
2022/10/22 05:58:14;;;;;;;0.85;0.40;;;11.70;99.90;;;;;;5084544;28;20044;-81
2022/10/22 06:00:40;;;;;;;0.73;0.73;;;11.70;99.90;;;;;;5091619;28;20146;-81
2022/10/22 06:03:06;;;;;;;0.40;0.40;;;11.80;99.90;;;;;;5076755;28;20137;-82
2022/10/22 06:05:36;;;;;;;0.63;0.63;;;11.80;99.90;;;;;;5091916;28;20076;-82
2022/10/22 06:08:02;;;;;;;0.30;0.30;;;11.90;99.90;;;;;;5091419;28;20039;-81
2022/10/22 06:10:27;;;;;;;0.50;0.50;;;11.90;99.90;;;;;;5087238;28;20036;-81
2022/10/22 06:12:53;;;;;;;1.10;1.10;;;12.00;99.90;;;;;;5093136;28;20203;-81
2022/10/22 06:15:19;;;;;;;1.02;0.68;;;12.00;99.90;;;;;;5089195;28;20048;-81
2022/10/22 06:17:46;;;;;;;0.43;0.43;;;12.10;99.90;;;;;;5089643;28;20047;-82
2022/10/22 06:20:12;;;;;;;0.40;0.40;;;12.10;99.90;;;;;;5070743;28;20202;-81
2022/10/22 06:22:38;;;;;;;3.10;1.38;;;12.10;99.90;;;;;;5084629;28;20128;-82
2022/10/22 06:25:07;;;;;;;1.60;1.50;;;12.10;99.90;;;;;;5074371;28;20452;-80
2022/10/22 06:27:33;;;;;;;0.40;0.40;;;12.10;99.90;;;;;;5091330;28;20082;-81
2022/10/22 06:29:59;;;;;;;0.55;0.55;;;12.10;99.90;;;;;;5039755;28;20051;-80
2022/10/22 06:32:25;;;;;;;0.80;0.80;;;12.10;99.90;;;;;;5088976;28;20048;-81
2022/10/22 06:34:50;;;;;;;0.30;0.30;;;12.10;99.90;;;;;;5087093;28;20170;-80
2022/10/22 06:37:16;;;;;;;0.90;0.90;;;12.10;99.90;;;;;;5084361;28;20044;-81
2022/10/22 06:39:42;;;;;;;1.20;1.10;;;12.10;99.90;;;;;;5090732;28;20083;-81
2022/10/22 06:42:07;;;;;;;0.47;0.47;;;12.10;99.90;;;;;;5084558;28;20040;-81
2022/10/22 06:44:33;;;;;;;0.88;0.88;;;12.10;99.90;;;;;;5088617;28;20044;-81
2022/10/22 06:46:59;;;;;;;0.50;0.50;;;12.10;99.90;;;;;;5062299;28;20043;-82
2022/10/22 06:49:25;;;;;;;0.40;0.40;;;12.10;99.90;;;;;;5074894;28;20490;-78
2022/10/22 06:51:51;;;;;;;1.17;1.17;;;12.20;99.90;;;;;;5090419;28;20047;-79
2022/10/22 06:54:17;;;;;;;0.50;0.50;;;12.20;99.90;;;;;;5085781;28;20554;-82
2022/10/22 06:56:43;;;;;;;1.55;0.98;;;12.20;99.90;;;;;;5065295;28;20040;-82
2022/10/22 06:59:09;;;;;;;1.58;1.48;;;12.30;99.90;;;;;;5082914;28;20040;-82
2022/10/22 07:01:35;;;;;;;;;;;12.40;99.90;;;;;;5080841;28;20089;-82
2022/10/22 07:04:02;;;;;;;0.30;0.30;;;12.50;99.90;;;;;;5066442;28;20343;-83
2022/10/22 07:06:28;;;;;;;;;;;12.50;99.90;;;;;;5090437;28;20445;-83
2022/10/22 07:08:55;;;;;;;0.40;0.40;;;12.60;99.90;;;;;;5087767;28;19916;-82
2022/10/22 07:11:26;;;;;;;0.80;0.80;;;12.70;99.90;;;;;;5072418;28;20469;-81
2022/10/22 07:13:57;;;;;;;0.38;0.38;;;12.80;99.90;;;;;;5081569;28;20127;-82
2022/10/22 07:16:23;;;;;;;0.30;0.30;;;12.80;99.90;;;;;;5072556;28;20062;-82
2022/10/22 07:18:49;;;;;;;0.47;0.47;;;12.90;99.90;;;;;;5088577;28;20044;-81
2022/10/22 07:21:19;;;;;;;0.50;0.50;;;12.90;99.90;;;;;;5089492;28;20255;-84
2022/10/22 07:23:45;;;;;;;0.50;0.50;;;12.90;99.90;;;;;;5087313;28;20039;-81
2022/10/22 07:26:13;;;;;;;0.30;0.30;;;13.00;99.90;;;;;;5063465;28;20078;-82
2022/10/22 07:28:40;;;;;;;0.40;0.40;;;13.00;99.90;;;;;;5082559;28;20040;-82
2022/10/22 07:31:11;;;;;;;0.20;0.20;;;13.00;99.90;;;;;;5084456;28;20095;-82
2022/10/22 07:33:37;;;;;;;0.43;0.43;;;13.10;99.90;;;;;;5080303;28;20043;-82
2022/10/22 07:36:06;;;;;;;0.80;0.80;;;13.10;99.90;;;;;;5084150;28;20513;-83
2022/10/22 07:38:32;;;;;;;0.40;0.40;;;13.10;99.90;;;;;;5084748;28;20508;-82
2022/10/22 07:40:58;;;;;;;;;;;13.10;99.90;;;;;;5085412;28;20517;-82
2022/10/22 07:43:24;;;;;;;0.63;0.50;;;13.10;99.90;;;;;;5088663;28;20006;-83
2022/10/22 07:45:50;;;;;;;0.40;0.40;;;13.10;99.90;;;;;;5085674;28;20044;-82
2022/10/22 07:48:16;;;;;;;0.35;0.35;;;13.20;99.90;;;;;;5063826;28;20039;-82
2022/10/22 07:50:41;;;;;;;1.35;0.95;;;13.20;99.90;;;;;;5089447;28;20554;-82
2022/10/22 07:53:07;;;;;;;0.63;0.63;;;13.20;99.90;;;;;;5072661;28;20036;-81
2022/10/22 07:55:33;;;;;;;0.55;0.55;;;13.20;99.90;;;;;;5080006;28;20063;-82
2022/10/22 07:57:59;;;;;;;0.30;0.30;;;13.20;99.90;;;;;;5085116;28;20048;-81
2022/10/22 08:00:25;;;;;;;0.88;0.88;;;13.30;99.90;;;;;;5089634;28;20052;-82
2022/10/22 08:02:51;;;;;;;1.05;1.05;;;13.30;99.90;;;;;;5089881;28;20182;-82
2022/10/22 08:05:17;;;;;;;;;;;13.30;99.90;;;;;;5087279;28;20289;-82
2022/10/22 08:07:43;;;;;;;0.47;0.47;;;13.30;99.90;;;;;;5085215;28;20392;-82
2022/10/22 08:10:09;;;;;;;0.47;0.47;;;13.30;99.90;;;;;;5066154;28;20025;-82
2022/10/22 08:12:35;;;;;;;0.85;0.85;;;13.40;99.90;;;;;;5087067;28;20158;-83
2022/10/22 08:15:01;;;;;;;;;;;13.40;99.90;;;;;;5086726;28;20067;-82
2022/10/22 08:17:27;;;;;;;2.58;0.57;;;13.40;99.90;;;;;;5087871;28;20017;-82
2022/10/22 08:19:53;;;;;;;0.55;0.50;;;13.40;99.90;;;;;;5087352;28;20044;-82
2022/10/22 08:22:18;;;;;;;0.40;0.40;;;13.40;99.90;;;;;;5063472;28;20489;-82
2022/10/22 08:24:44;;;;;;;0.40;0.40;;;13.50;99.90;;;;;;5083978;28;20052;-82
2022/10/22 08:27:10;;;;;;;0.40;0.40;;;13.50;99.90;;;;;;5068395;28;20389;-81
2022/10/22 08:29:35;;;;;;;0.57;0.57;;;13.50;99.90;;;;;;5083455;28;20036;-83
2022/10/22 08:32:01;;;;;;;0.40;0.40;;;13.60;99.90;;;;;;5089770;28;20036;-81
2022/10/22 08:34:28;;;;;;;0.82;0.82;;;13.60;99.90;;;;;;5095381;28;20051;-81
2022/10/22 08:36:54;;;;;;;0.22;0.22;;;13.70;99.90;;;;;;5087405;28;20059;-83
2022/10/22 08:39:20;;;;;;;0.40;0.40;;;13.70;99.90;;;;;;5065424;28;20393;-83
2022/10/22 08:41:49;;;;;;;0.73;0.63;;;13.80;99.90;;;;;;5084948;28;20044;-82
2022/10/22 08:44:50;;;;;;;0.65;0.60;;;13.80;99.90;;;;;;5083891;28;20386;-82
2022/10/22 08:47:45;;;;;;;0.50;0.50;;;13.90;99.90;;;;;;5086273;28;20101;-81
2022/10/22 08:50:16;;;;;;;0.40;0.40;;;14.00;99.90;;;;;;5072250;28;20036;-82
2022/10/22 08:52:45;;;;;;;0.28;0.28;;;14.00;99.90;;;;;;5081491;28;20478;-82
2022/10/22 08:55:15;;;;;;;0.40;0.40;;;14.10;99.90;;;;;;5098013;28;20047;-82
2022/10/22 08:58:06;;;;;;;0.30;0.30;;;14.20;99.90;;;;;;5081992;28;20040;-82
2022/10/22 09:00:50;;;;;;;0.30;0.30;;;14.30;99.90;;;;;;5072746;28;20044;-81
2022/10/22 09:03:33;;;;;;;0.77;0.70;;;14.40;99.90;;;;;;5083688;28;20055;-82
2022/10/22 09:05:58;;;;;;;0.25;0.25;;;14.40;99.90;;;;;;5085908;28;20379;-81
2022/10/22 09:08:24;;;;;;;0.95;0.60;;;14.50;99.90;;;;;;5060412;28;20035;-81
2022/10/22 09:11:14;;;;;;;0.47;0.47;;;14.70;99.90;;;;;;5065766;28;20036;-81
2022/10/22 09:13:43;;;;;;;0.40;0.40;;;14.80;99.90;;;;;;5083643;28;20039;-81
2022/10/22 09:16:24;;;;;;;0.80;0.80;;;15.00;99.90;;;;;;5085026;28;21488;-81
2022/10/22 09:19:13;;;;;;;0.30;0.30;;;15.10;99.90;;;;;;5087105;28;20051;-81
2022/10/22 09:21:41;;;;;;;0.30;0.30;;;15.20;99.90;;;;;;5079172;28;20549;-81
2022/10/22 09:24:29;;;;;;;0.40;0.40;;;15.30;99.90;;;;;;5073939;28;20039;-81
2022/10/22 09:26:56;;;;;;;0.75;0.75;;;15.40;99.90;;;;;;5075943;28;20044;-82
2022/10/22 09:29:30;;;;;;;0.63;0.63;;;15.50;99.90;;;;;;5091783;28;20428;-82
2022/10/22 09:31:56;;;;;;;0.95;0.95;;;15.50;99.90;;;;;;5072082;28;20047;-81
2022/10/22 09:34:21;;;;;;;0.20;0.20;;;15.50;99.90;;;;;;5081819;28;20048;-81
2022/10/22 09:36:55;;;;;;;0.30;0.30;;;15.60;99.90;;;;;;5098586;28;20043;-82
2022/10/22 09:39:25;;;;;;;0.30;0.30;;;15.70;99.90;;;;;;5068350;28;20048;-81
2022/10/22 09:41:50;;;;;;;0.52;0.52;;;15.80;99.90;;;;;;5084840;28;20119;-81
2022/10/22 09:44:18;;;;;;;1.48;0.82;;;15.80;99.90;;;;;;5076485;28;20127;-80
2022/10/22 09:46:44;;;;;;;0.22;0.22;;;15.90;99.90;;;;;;5103312;28;20092;-81
2022/10/22 09:49:16;;;;;;;0.20;0.20;;;15.90;99.90;;;;;;5097685;28;20078;-81
2022/10/22 09:52:23;;;;;;;0.40;0.40;;;15.90;99.90;;;;;;5089402;28;20100;-81
2022/10/22 09:54:51;;;;;;;0.43;0.43;;;16.10;99.90;;;;;;5099725;28;20500;-81
2022/10/22 09:57:21;;;;;;;0.65;0.65;;;16.00;99.90;;;;;;5085468;28;20493;-81
2022/10/22 09:59:49;;;;;;;0.70;0.38;;;16.00;99.90;;;;;;5079944;28;20077;-81
2022/10/22 10:02:19;;;;;;;0.30;0.30;;;16.10;99.90;;;;;;5090714;28;20075;-81
2022/10/22 10:04:50;;;;;;;1.02;0.82;;;16.10;99.90;;;;;;5090536;28;20079;-81
2022/10/22 10:07:19;;;;;;;0.30;0.30;;;16.10;99.90;;;;;;5086955;28;20119;-81
2022/10/22 10:09:45;;;;;;;0.63;0.63;;;16.10;99.90;;;;;;5076832;28;20067;-81
2022/10/22 10:12:51;;;;;;;0.30;0.30;;;16.10;99.90;;;;;;5082534;28;20530;-81
2022/10/22 10:15:32;;;;;;;1.00;1.00;;;16.20;99.90;;;;;;5071727;28;20043;-81
2022/10/22 10:18:35;;;;;;;0.22;0.22;;;16.20;99.90;;;;;;5086928;28;20401;-81
2022/10/22 10:21:20;;;;;;;0.40;0.40;;;16.20;99.90;;;;;;5085169;28;20047;-81
2022/10/22 10:24:20;;;;;;;1.05;0.38;;;16.20;99.90;;;;;;5085804;28;20075;-81
2022/10/22 10:27:01;;;;;;;0.20;0.20;;;16.20;99.90;;;;;;5086611;28;20048;-81
2022/10/22 10:29:47;;;;;;;0.40;0.40;;;16.20;99.90;;;;;;5081436;28;20412;-81
2022/10/22 10:32:48;;;;;;;0.60;0.60;;;16.20;99.90;;;;;;5062383;28;20101;-81
2022/10/22 10:35:27;;;;;;;0.45;0.45;;;16.10;99.90;;;;;;5065554;28;20052;-81
2022/10/22 10:38:14;;;;;;;0.30;0.30;;;16.10;99.90;;;;;;5077801;28;20036;-82
2022/10/22 10:40:58;;;;;;;6.20;1.30;;;16.10;99.90;;;;;;5062504;28;20101;-80
2022/10/22 10:43:48;;;;;;;1.15;0.70;;;16.10;99.90;;;;;;5074251;28;20055;-81
2022/10/22 10:46:32;;;;;;;1.88;0.60;;;16.20;99.90;;;;;;5059112;28;20044;-82
2022/10/22 10:49:17;;;;;;;0.20;0.20;;;16.20;99.90;;;;;;5075968;28;20169;-82
2022/10/22 10:51:56;;;;;;;0.82;0.82;;;16.20;99.90;;;;;;5072768;28;20040;-82
2022/10/22 10:54:38;;;;;;;0.30;0.30;;;16.10;99.90;;;;;;5076709;28;20086;-82
2022/10/22 10:57:15;;;;;;;0.70;0.55;;;16.10;99.90;;;;;;5078514;28;20533;-82
2022/10/22 11:00:13;;;;;;;0.45;0.45;;;16.10;99.90;;;;;;5081175;28;20127;-81
2022/10/22 11:03:17;;;;;;;0.40;0.40;;;16.10;99.90;;;;;;5082869;28;20404;-82
2022/10/22 11:05:56;;;;;;;2.60;0.50;;;16.00;99.90;;;;;;5084693;28;20044;-82
2022/10/22 11:08:44;;;;;;;0.35;0.35;;;16.00;99.90;;;;;;5090350;28;20055;-82
2022/10/22 11:11:33;;;;;;;0.35;0.35;;;15.90;99.90;;;;;;5085824;28;20504;-82
2022/10/22 11:14:26;;;;;;;1.17;0.70;;;15.90;99.90;;;;;;5075778;28;20040;-82
2022/10/22 11:17:00;;;;;;;0.28;0.28;;;15.80;99.90;;;;;;5056393;28;20077;-81
2022/10/22 11:19:42;;;;;;;0.32;0.32;;;15.80;99.90;;;;;;5076155;28;20477;-82
2022/10/22 11:22:35;;;;;;;0.30;0.30;;;15.90;99.90;;;;;;5068003;28;20052;-82
2022/10/22 11:25:21;;;;;;;1.23;1.13;;;15.90;99.90;;;;;;5078209;28;20044;-82
2022/10/22 11:28:10;;;;;;;0.82;0.80;;;15.90;99.90;;;;;;5074445;28;20074;-81
2022/10/22 11:30:37;;;;;;;0.35;0.35;;;15.90;99.90;;;;;;5076261;28;20119;-81
2022/10/22 11:33:11;;;;;;;0.32;0.32;;;15.90;99.90;;;;;;5076119;28;20123;-81
2022/10/22 11:35:41;;;;;;;0.40;0.40;;;16.10;99.90;;;;;;5084767;28;20389;-82
2022/10/22 11:38:14;;;;;;;0.20;0.20;;;16.10;99.90;;;;;;5080358;28;20378;-81
2022/10/22 11:40:57;;;;;;;0.60;0.60;;;16.20;99.90;;;;;;5073047;28;20083;-82
2022/10/22 11:43:44;;;;;;;0.20;0.20;;;16.40;99.90;;;;;;5057713;28;20052;-82
2022/10/22 11:46:13;;;;;;;;;;;16.50;99.90;;;;;;5083994;28;20044;-82
2022/10/22 11:48:39;;;;;;;0.40;0.40;;;16.60;99.90;;;;;;5083328;28;19981;-82
2022/10/22 11:51:35;;;;;;;0.50;0.50;;;16.60;99.90;;;;;;5090209;28;20123;-81
2022/10/22 11:54:22;;;;;;;0.20;0.20;;;16.50;99.90;;;;;;5089797;28;20064;-81
2022/10/22 11:56:56;;;;;;;0.35;0.35;;;16.40;99.90;;;;;;5081300;28;20083;-81
2022/10/22 11:59:46;;;;;;;0.20;0.20;;;16.30;99.90;;;;;;5078087;28;20079;-82
2022/10/22 12:02:27;;;;;;;0.63;0.63;;;16.30;99.90;;;;;;5091887;28;20040;-82
2022/10/22 12:04:55;;;;;;;0.75;0.40;;;16.20;99.90;;;;;;5080858;28;20095;-82
2022/10/22 12:07:32;;;;;;;0.30;0.30;;;16.10;99.90;;;;;;5084017;28;20040;-81
2022/10/22 12:09:58;;;;;;;0.98;0.98;;;16.10;99.90;;;;;;5079781;28;20036;-81
2022/10/22 12:12:24;;;;;;;;;;;16.20;99.90;;;;;;5077654;28;20543;-81
2022/10/22 12:14:58;;;;;;;0.73;0.73;;;16.30;99.90;;;;;;5087648;28;19916;-82
2022/10/22 12:17:24;;;;;;;0.30;0.30;;;16.30;99.90;;;;;;5086292;28;20048;-81
2022/10/22 12:19:57;;;;;;;0.57;0.32;;;16.40;99.90;;;;;;5082691;28;20047;-81
2022/10/22 12:22:28;;;;;;;0.40;0.40;;;16.50;99.90;;;;;;5068997;28;20078;-81
2022/10/22 12:24:59;;;;;;;4.10;1.50;;;16.50;99.90;;;;;;5088869;28;20046;-81
2022/10/22 12:27:26;;;;;;;0.30;0.30;;;16.50;99.90;;;;;;5082916;28;20067;-82
2022/10/22 12:29:55;;;;;;;0.35;0.35;;;16.50;99.90;;;;;;5089075;28;20489;-82
2022/10/22 12:32:21;;;;;;;1.20;0.95;;;16.50;99.90;;;;;;5093663;28;20447;-82
2022/10/22 12:34:51;;;;;;;0.57;0.57;;;16.50;99.90;;;;;;5096989;28;20044;-82
2022/10/22 12:37:18;;;;;;;1.35;1.30;;;16.40;99.90;;;;;;5109349;28;20051;-81
2022/10/22 12:39:45;;;;;;;0.80;0.77;;;16.30;99.90;;;;;;5090511;28;20044;-80
2022/10/22 12:42:17;;;;;;;0.52;0.52;;;16.30;99.90;;;;;;5089147;28;20394;-82
2022/10/22 12:44:43;;;;;;;0.20;0.20;;;16.30;99.90;;;;;;5039135;28;20055;-80
2022/10/22 12:47:17;;;;;;;0.40;0.40;;;16.30;99.90;;;;;;5089663;28;20154;-81
2022/10/22 12:49:48;;;;;;;0.73;0.73;;;16.30;99.90;;;;;;5087493;28;20652;-81
2022/10/22 12:52:18;;;;;;;0.73;0.73;;;16.30;99.90;;;;;;5083426;28;20132;-81
2022/10/22 12:54:47;;;;;;;0.65;0.65;;;16.30;99.90;;;;;;5089053;28;20127;-81
2022/10/22 12:57:15;;;;;;;1.13;1.02;;;16.30;99.90;;;;;;5085037;28;20124;-81
2022/10/22 12:59:43;;;;;;;0.55;0.55;;;16.30;99.90;;;;;;5083068;28;20068;-81
2022/10/22 13:02:24;;;;;;;0.28;0.28;;;16.20;99.90;;;;;;5089537;28;20063;-81
2022/10/22 13:05:22;;;;;;;0.40;0.40;;;16.30;99.90;;;;;;5096105;28;20036;-81
2022/10/22 13:08:00;;;;;;;0.30;0.30;;;16.30;99.90;;;;;;5086255;28;20044;-81
2022/10/22 13:10:31;;;;;;;0.55;0.55;;;16.40;99.90;;;;;;5093886;28;20366;-80